Time;durP1;ratioP1;P1;durP2;ratioP2;P2;SDS_P1;SDS_P2;PMS_P1;PMS_P2;Temp;Humidity;BMP_temperature;BMP_pressure;BME280_temperature;BME280_humidity;BME280_pressure;Samples;Min_cycle;Max_cycle;Signal;HPM_P1;HPM_P2
2021/10/14 00:01:50;;;;;;;5.25;4.75;;;9.50;99.90;;;;;;5070206;28;20737;-48
2021/10/14 00:04:16;;;;;;;6.70;5.32;;;9.50;99.90;;;;;;5070174;28;20093;-57
2021/10/14 00:06:43;;;;;;;5.97;4.90;;;9.40;99.90;;;;;;5083570;22;20040;-49
2021/10/14 00:09:09;;;;;;;6.60;4.47;;;9.50;99.90;;;;;;5049072;28;20075;-51
2021/10/14 00:11:34;;;;;;;5.70;4.50;;;9.50;99.90;;;;;;5049961;28;20032;-52
2021/10/14 00:14:00;;;;;;;6.03;5.20;;;9.50;99.90;;;;;;5049927;28;20036;-51
2021/10/14 00:16:25;;;;;;;6.43;5.38;;;9.50;99.90;;;;;;5049936;28;20029;-51
2021/10/14 00:18:51;;;;;;;6.22;5.63;;;9.50;99.90;;;;;;5050209;28;20557;-53
2021/10/14 00:21:16;;;;;;;6.97;6.28;;;9.50;99.90;;;;;;5049836;28;20320;-50
2021/10/14 00:23:42;;;;;;;10.18;5.60;;;9.50;99.90;;;;;;5044643;28;20036;-52
2021/10/14 00:26:08;;;;;;;11.27;7.30;;;9.60;99.90;;;;;;5049683;28;20100;-51
2021/10/14 00:28:33;;;;;;;7.95;6.05;;;9.50;99.90;;;;;;5048772;28;20036;-52
2021/10/14 00:30:59;;;;;;;6.72;6.03;;;9.60;99.90;;;;;;5049782;28;20484;-50
2021/10/14 00:33:25;;;;;;;6.72;5.93;;;9.60;99.90;;;;;;5048821;28;20021;-50
2021/10/14 00:35:50;;;;;;;9.13;6.95;;;9.60;99.90;;;;;;5049861;28;20067;-50
2021/10/14 00:38:16;;;;;;;9.23;7.80;;;9.60;99.90;;;;;;5049821;28;20468;-49
2021/10/14 00:40:44;;;;;;;7.57;6.78;;;9.60;99.90;;;;;;5049982;28;20488;-50
2021/10/14 00:43:10;;;;;;;7.85;6.78;;;9.70;99.90;;;;;;5049917;28;20025;-50
2021/10/14 00:45:35;;;;;;;8.25;6.72;;;9.70;99.90;;;;;;5055534;28;20032;-49
2021/10/14 00:48:01;;;;;;;10.85;7.85;;;9.70;99.90;;;;;;5049805;28;20025;-51
2021/10/14 00:50:27;;;;;;;10.68;7.45;;;9.70;99.90;;;;;;5049047;28;20100;-51
2021/10/14 00:52:54;;;;;;;10.02;8.25;;;9.70;99.90;;;;;;5049523;28;20107;-49
2021/10/14 00:55:21;;;;;;;8.32;6.97;;;9.70;99.90;;;;;;5049749;28;20017;-52
2021/10/14 00:57:48;;;;;;;8.50;7.45;;;9.80;99.90;;;;;;5048057;28;20131;-48
2021/10/14 01:00:14;;;;;;;11.07;7.90;;;9.70;99.90;;;;;;5038892;28;20029;-50
2021/10/14 01:02:40;;;;;;;11.05;8.40;;;9.80;99.90;;;;;;5039581;28;20055;-50
2021/10/14 01:05:06;;;;;;;11.43;8.15;;;9.80;99.90;;;;;;5048728;28;20056;-51
2021/10/14 01:07:32;;;;;;;9.10;7.72;;;9.80;99.90;;;;;;5048595;28;20415;-51
2021/10/14 01:09:57;;;;;;;10.88;8.82;;;9.90;99.90;;;;;;5048559;28;20116;-49
2021/10/14 01:12:24;;;;;;;10.70;8.63;;;9.90;99.90;;;;;;5048980;28;20099;-49
2021/10/14 01:14:50;;;;;;;10.18;9.13;;;9.90;99.90;;;;;;5047377;28;20025;-50
2021/10/14 01:17:16;;;;;;;11.45;9.52;;;9.90;99.90;;;;;;5048616;28;20029;-51
2021/10/14 01:19:43;;;;;;;10.85;9.05;;;9.90;99.90;;;;;;5048577;28;20614;-50
2021/10/14 01:22:09;;;;;;;11.63;8.95;;;9.90;99.90;;;;;;5048626;28;20069;-50
2021/10/14 01:24:35;;;;;;;10.93;8.48;;;10.00;99.90;;;;;;5048540;28;20571;-49
2021/10/14 01:27:04;;;;;;;14.82;8.30;;;10.00;99.90;;;;;;5048640;28;20029;-50
2021/10/14 01:29:29;;;;;;;9.07;7.22;;;10.00;99.90;;;;;;5047935;28;20025;-49
2021/10/14 01:31:55;;;;;;;9.50;7.30;;;10.00;99.90;;;;;;5048711;28;20033;-51
2021/10/14 01:34:21;;;;;;;13.20;7.97;;;10.00;99.90;;;;;;5048477;28;20606;-49
2021/10/14 01:36:46;;;;;;;9.38;8.13;;;10.00;99.90;;;;;;5048640;28;20307;-50
2021/10/14 01:39:12;;;;;;;12.10;7.05;;;10.00;99.90;;;;;;5048519;28;20033;-49
2021/10/14 01:41:42;;;;;;;9.18;6.88;;;10.10;99.90;;;;;;5048471;28;20091;-50
2021/10/14 01:44:07;;;;;;;8.88;7.60;;;10.10;99.90;;;;;;5047765;28;20029;-49
2021/10/14 01:46:33;;;;;;;13.65;8.63;;;10.10;99.90;;;;;;5048191;28;20369;-52
2021/10/14 01:48:58;;;;;;;11.35;7.95;;;10.10;99.90;;;;;;5048354;28;20090;-49
2021/10/14 01:51:24;;;;;;;12.15;7.78;;;10.20;99.90;;;;;;5048071;28;20105;-50
2021/10/14 01:53:50;;;;;;;10.48;7.60;;;10.20;99.90;;;;;;5048343;28;20033;-50
2021/10/14 01:56:15;;;;;;;13.63;8.30;;;10.20;99.90;;;;;;5048200;28;20500;-50
2021/10/14 01:58:41;;;;;;;13.48;9.02;;;10.20;99.90;;;;;;5047473;28;20083;-50
2021/10/14 02:01:06;;;;;;;10.55;7.18;;;10.20;99.90;;;;;;5047560;28;20033;-49
2021/10/14 02:03:32;;;;;;;11.68;8.40;;;10.20;99.90;;;;;;5048089;28;20122;-50
2021/10/14 02:05:58;;;;;;;11.15;8.45;;;10.30;99.90;;;;;;5048060;28;20041;-50
2021/10/14 02:08:23;;;;;;;11.90;9.18;;;10.30;99.90;;;;;;5047736;28;20109;-49
2021/10/14 02:10:49;;;;;;;9.57;7.95;;;10.30;99.90;;;;;;5047391;28;20072;-49
2021/10/14 02:13:15;;;;;;;14.65;9.18;;;10.30;99.90;;;;;;5047300;28;20033;-49
2021/10/14 02:15:40;;;;;;;11.57;8.75;;;10.30;99.90;;;;;;5047670;28;20063;-50
2021/10/14 02:18:06;;;;;;;11.73;8.75;;;10.30;99.90;;;;;;5047102;28;20017;-51
2021/10/14 02:20:31;;;;;;;13.60;9.48;;;10.40;99.90;;;;;;5047865;28;20393;-50
2021/10/14 02:22:57;;;;;;;11.23;9.05;;;10.40;99.90;;;;;;5047893;28;20427;-49
2021/10/14 02:25:22;;;;;;;14.13;9.68;;;10.40;99.90;;;;;;5047913;28;20443;-50
2021/10/14 02:27:48;;;;;;;12.75;8.52;;;10.40;99.90;;;;;;5046510;28;20488;-50
2021/10/14 02:30:14;;;;;;;15.20;9.77;;;10.50;99.90;;;;;;5045756;28;20454;-50
2021/10/14 02:32:41;;;;;;;16.00;10.60;;;10.40;99.90;;;;;;5047429;28;20086;-49
2021/10/14 02:35:07;;;;;;;11.90;8.65;;;10.50;99.90;;;;;;5047531;28;20029;-49
2021/10/14 02:37:35;;;;;;;12.10;9.50;;;10.50;99.90;;;;;;5047605;28;20506;-50
2021/10/14 02:40:01;;;;;;;14.10;9.30;;;10.50;99.90;;;;;;5047322;28;20033;-50
2021/10/14 02:42:26;;;;;;;12.35;9.63;;;10.50;99.90;;;;;;5047503;28;20021;-48
2021/10/14 02:44:52;;;;;;;16.58;10.35;;;10.50;99.90;;;;;;5047164;28;20643;-50
2021/10/14 02:47:17;;;;;;;12.57;9.35;;;10.50;99.90;;;;;;5047077;28;20032;-49
2021/10/14 02:49:43;;;;;;;11.13;9.15;;;10.50;99.90;;;;;;5047237;28;20040;-49
2021/10/14 02:52:09;;;;;;;11.52;8.43;;;10.50;99.90;;;;;;5047500;28;20461;-50
2021/10/14 02:54:35;;;;;;;11.35;8.98;;;10.60;99.90;;;;;;5034285;28;20665;-50
2021/10/14 02:57:01;;;;;;;14.27;9.65;;;10.50;99.90;;;;;;5044687;28;20036;-50
2021/10/14 02:59:26;;;;;;;16.98;9.73;;;10.60;99.90;;;;;;5047078;28;20029;-50
2021/10/14 03:01:52;;;;;;;16.33;9.25;;;10.60;99.90;;;;;;5047112;28;20492;-51
2021/10/14 03:04:17;;;;;;;13.15;9.73;;;10.60;99.90;;;;;;5047470;28;20029;-50
2021/10/14 03:06:43;;;;;;;13.18;9.63;;;10.60;99.90;;;;;;5047143;28;20064;-50
2021/10/14 03:09:09;;;;;;;14.05;10.05;;;10.60;99.90;;;;;;5046861;28;20338;-50
2021/10/14 03:11:35;;;;;;;13.15;9.35;;;10.60;99.90;;;;;;5047215;28;20017;-50
2021/10/14 03:14:01;;;;;;;20.17;10.18;;;10.60;99.90;;;;;;5046795;28;20029;-51
2021/10/14 03:16:26;;;;;;;16.92;11.07;;;10.60;99.90;;;;;;5047081;28;20681;-49
2021/10/14 03:18:52;;;;;;;14.35;10.68;;;10.70;99.90;;;;;;5040683;28;20040;-50
2021/10/14 03:21:18;;;;;;;14.70;10.38;;;10.70;99.90;;;;;;5027323;28;20423;-52
2021/10/14 03:23:44;;;;;;;19.80;11.07;;;10.70;99.90;;;;;;5040016;28;20031;-49
2021/10/14 03:26:10;;;;;;;15.63;10.15;;;10.70;99.90;;;;;;5051324;28;20457;-51
2021/10/14 03:28:36;;;;;;;16.58;11.45;;;10.70;99.90;;;;;;5051162;28;20742;-51
2021/10/14 03:31:01;;;;;;;18.55;10.88;;;10.70;99.90;;;;;;5050619;28;20447;-50
2021/10/14 03:33:27;;;;;;;17.92;10.90;;;10.70;99.90;;;;;;5050628;28;20051;-50
2021/10/14 03:35:53;;;;;;;13.15;9.73;;;10.70;99.90;;;;;;5051057;28;20025;-49
2021/10/14 03:38:18;;;;;;;16.05;9.60;;;10.80;99.90;;;;;;5050774;28;20074;-53
2021/10/14 03:40:44;;;;;;;12.55;8.65;;;10.80;99.90;;;;;;5050305;28;20112;-49
2021/10/14 03:43:09;;;;;;;12.63;8.75;;;10.80;99.90;;;;;;5050717;28;20079;-49
2021/10/14 03:45:35;;;;;;;13.95;8.75;;;10.80;99.90;;;;;;5050474;28;20045;-49
2021/10/14 03:48:01;;;;;;;9.95;7.40;;;10.80;99.90;;;;;;5051103;28;20037;-50
2021/10/14 03:50:26;;;;;;;12.82;8.38;;;10.80;99.90;;;;;;5050170;28;20071;-49
2021/10/14 03:52:52;;;;;;;9.80;7.22;;;10.80;99.90;;;;;;5049056;28;20032;-51
2021/10/14 03:55:17;;;;;;;10.75;7.63;;;10.80;99.90;;;;;;5050924;28;20033;-51
2021/10/14 03:57:43;;;;;;;10.68;6.70;;;10.90;99.90;;;;;;5050296;28;20499;-49
2021/10/14 04:00:09;;;;;;;9.00;6.03;;;10.90;99.90;;;;;;5049473;28;20028;-50
2021/10/14 04:02:35;;;;;;;7.45;5.25;;;10.90;99.90;;;;;;5050050;28;20116;-50
2021/10/14 04:05:01;;;;;;;7.18;4.80;;;10.90;99.90;;;;;;5050766;28;20108;-49
2021/10/14 04:07:26;;;;;;;6.85;4.72;;;10.90;99.90;;;;;;5050109;28;20025;-49
2021/10/14 04:09:52;;;;;;;6.32;4.75;;;10.90;99.90;;;;;;5050156;28;20037;-49
2021/10/14 04:12:18;;;;;;;6.60;4.25;;;10.90;99.90;;;;;;5049930;28;20078;-50
2021/10/14 04:14:43;;;;;;;4.70;3.90;;;10.90;99.90;;;;;;5049591;28;20025;-49
2021/10/14 04:17:09;;;;;;;4.40;3.50;;;11.00;99.90;;;;;;5050593;28;20621;-50
2021/10/14 04:19:34;;;;;;;5.25;3.88;;;11.00;99.90;;;;;;5049978;28;20041;-50
2021/10/14 04:22:00;;;;;;;5.15;3.50;;;11.00;99.90;;;;;;5048603;28;20025;-49
2021/10/14 04:24:29;;;;;;;6.03;4.30;;;11.00;99.90;;;;;;5050208;28;20024;-49
2021/10/14 04:26:55;;;;;;;5.30;3.95;;;11.00;99.90;;;;;;5049976;28;20029;-53
2021/10/14 04:29:21;;;;;;;4.95;3.97;;;11.10;99.90;;;;;;5049327;28;20035;-50
2021/10/14 04:31:47;;;;;;;4.55;3.63;;;11.10;99.90;;;;;;5050080;28;20357;-49
2021/10/14 04:34:13;;;;;;;5.05;3.60;;;11.10;99.90;;;;;;5049906;28;20025;-49
2021/10/14 04:36:39;;;;;;;4.18;3.60;;;11.10;99.90;;;;;;5049772;28;20021;-49
2021/10/14 04:39:06;;;;;;;3.50;3.15;;;11.10;99.90;;;;;;5049133;28;20104;-50
2021/10/14 04:41:32;;;;;;;5.85;3.75;;;11.20;99.90;;;;;;5049899;28;20025;-52
2021/10/14 04:43:58;;;;;;;6.18;4.40;;;11.20;99.90;;;;;;5049470;28;20021;-49
2021/10/14 04:46:23;;;;;;;5.65;4.15;;;11.20;99.90;;;;;;5049530;28;20515;-50
2021/10/14 04:48:49;;;;;;;6.05;4.20;;;11.20;99.90;;;;;;5049389;28;20104;-50
2021/10/14 04:51:14;;;;;;;7.72;5.03;;;11.20;99.90;;;;;;5049464;28;20040;-50
2021/10/14 04:53:40;;;;;;;9.82;5.10;;;11.20;99.90;;;;;;5049362;28;20605;-50
2021/10/14 04:56:05;;;;;;;5.13;4.63;;;11.20;99.90;;;;;;5049688;28;20567;-49
2021/10/14 04:58:32;;;;;;;7.22;4.68;;;11.30;99.90;;;;;;5049575;28;20096;-51
2021/10/14 05:00:58;;;;;;;7.95;4.30;;;11.30;99.90;;;;;;5049152;28;20028;-49
2021/10/14 05:03:23;;;;;;;7.97;4.75;;;11.30;99.90;;;;;;5049656;28;20033;-50
2021/10/14 05:05:49;;;;;;;7.35;4.20;;;11.30;99.90;;;;;;5048743;28;20043;-50
2021/10/14 05:08:14;;;;;;;4.82;3.97;;;11.30;99.90;;;;;;5049362;28;20037;-50
2021/10/14 05:10:41;;;;;;;5.88;3.75;;;11.30;99.90;;;;;;5048839;28;20044;-49
2021/10/14 05:13:07;;;;;;;4.90;3.95;;;11.40;99.90;;;;;;5049137;28;20032;-50
2021/10/14 05:15:33;;;;;;;4.57;3.28;;;11.40;99.90;;;;;;5049434;28;20039;-50
2021/10/14 05:17:58;;;;;;;4.85;3.22;;;11.40;99.90;;;;;;5047458;28;20033;-50
2021/10/14 05:20:24;;;;;;;4.35;2.65;;;11.40;99.90;;;;;;5047330;28;20751;-50
2021/10/14 05:22:49;;;;;;;4.10;2.70;;;11.40;99.90;;;;;;5048882;28;20025;-49
2021/10/14 05:25:15;;;;;;;3.92;2.63;;;11.40;99.90;;;;;;5049131;28;20050;-49
2021/10/14 05:27:40;;;;;;;3.28;2.50;;;11.40;99.90;;;;;;5047316;28;20474;-50
2021/10/14 05:30:07;;;;;;;2.88;2.17;;;11.40;99.90;;;;;;5047975;28;20025;-49
2021/10/14 05:32:32;;;;;;;6.32;2.83;;;11.40;99.90;;;;;;5048801;28;20207;-50
2021/10/14 05:34:59;;;;;;;3.88;2.53;;;11.40;99.90;;;;;;5047052;28;20124;-50
2021/10/14 05:37:29;;;;;;;2.90;2.50;;;11.40;99.90;;;;;;5048580;28;20399;-50
2021/10/14 05:39:54;;;;;;;2.75;2.28;;;11.40;99.90;;;;;;5048032;28;20476;-50
2021/10/14 05:42:20;;;;;;;3.42;2.35;;;11.50;99.90;;;;;;5047764;28;20040;-50
2021/10/14 05:44:45;;;;;;;3.25;2.85;;;11.50;99.90;;;;;;5047863;28;20031;-51
2021/10/14 05:47:11;;;;;;;3.38;2.35;;;11.50;99.90;;;;;;5045118;28;20112;-51
2021/10/14 05:49:37;;;;;;;2.92;2.35;;;11.50;99.90;;;;;;5048234;28;20040;-51
2021/10/14 05:52:03;;;;;;;2.08;1.85;;;11.50;99.90;;;;;;5048162;28;20031;-52
2021/10/14 05:54:29;;;;;;;2.30;2.08;;;11.50;99.90;;;;;;5048135;28;20028;-49
2021/10/14 05:56:54;;;;;;;2.13;1.48;;;11.60;99.90;;;;;;5048169;28;20033;-49
2021/10/14 05:59:20;;;;;;;3.45;2.35;;;11.60;99.90;;;;;;5047418;28;20025;-49
2021/10/14 06:01:45;;;;;;;2.85;2.00;;;11.60;99.90;;;;;;5047908;28;20025;-50
2021/10/14 06:04:11;;;;;;;2.30;1.75;;;11.60;99.90;;;;;;5047788;28;20029;-50
2021/10/14 06:06:36;;;;;;;3.60;2.33;;;11.60;99.90;;;;;;5075131;22;20048;-56
2021/10/14 06:09:02;;;;;;;2.97;2.20;;;11.60;99.90;;;;;;5063444;28;20039;-50
2021/10/14 06:11:27;;;;;;;1.88;1.50;;;11.60;99.90;;;;;;5065322;28;20047;-51
2021/10/14 06:13:53;;;;;;;3.88;2.13;;;11.60;99.90;;;;;;5067200;28;20050;-53
2021/10/14 06:16:19;;;;;;;3.75;2.22;;;11.60;99.90;;;;;;5067851;28;20405;-50
2021/10/14 06:18:44;;;;;;;2.45;1.83;;;11.60;99.90;;;;;;5067446;28;20089;-48
2021/10/14 06:21:10;;;;;;;6.50;2.80;;;11.60;99.90;;;;;;5062962;28;20070;-52
2021/10/14 06:23:35;;;;;;;3.35;2.50;;;11.70;99.90;;;;;;5066836;28;20273;-49
2021/10/14 06:26:01;;;;;;;3.88;2.35;;;11.70;99.90;;;;;;5067325;28;20362;-52
2021/10/14 06:28:26;;;;;;;3.50;2.13;;;11.70;99.90;;;;;;5067267;28;20024;-52
2021/10/14 06:30:52;;;;;;;2.75;2.05;;;11.80;99.90;;;;;;5067501;28;20396;-52
2021/10/14 06:33:18;;;;;;;3.60;2.80;;;11.80;99.90;;;;;;5067765;28;20032;-51
2021/10/14 06:35:44;;;;;;;3.35;2.60;;;11.80;99.90;;;;;;5067665;28;20337;-50
2021/10/14 06:38:10;;;;;;;6.45;3.22;;;11.80;99.90;;;;;;5066827;28;20103;-50
2021/10/14 06:40:35;;;;;;;7.05;3.75;;;11.80;99.90;;;;;;5077132;28;20020;-49
2021/10/14 06:43:01;;;;;;;6.15;4.07;;;11.80;99.90;;;;;;5087739;28;20112;-50
2021/10/14 06:45:26;;;;;;;5.95;3.50;;;11.90;99.90;;;;;;5087941;28;20119;-55
2021/10/14 06:47:52;;;;;;;7.55;4.75;;;11.90;99.90;;;;;;5087965;28;20028;-51
2021/10/14 06:50:18;;;;;;;7.90;4.75;;;12.00;99.90;;;;;;5087845;28;20036;-49
2021/10/14 06:52:44;;;;;;;7.55;4.60;;;11.90;99.90;;;;;;5087791;28;20036;-57
2021/10/14 06:55:09;;;;;;;6.88;4.88;;;12.00;99.90;;;;;;5072619;28;20042;-55
2021/10/14 06:57:35;;;;;;;6.88;4.88;;;12.00;99.90;;;;;;5067279;28;20078;-51
2021/10/14 07:00:01;;;;;;;10.00;4.25;;;12.00;99.90;;;;;;5070864;28;20666;-53
2021/10/14 07:02:26;;;;;;;7.93;4.10;;;12.00;99.90;;;;;;5071671;28;20518;-56
2021/10/14 07:04:52;;;;;;;8.07;4.40;;;12.00;99.90;;;;;;5072220;28;20043;-52
2021/10/14 07:07:17;;;;;;;7.28;4.57;;;12.00;99.90;;;;;;5070620;28;20040;-52
2021/10/14 07:09:43;;;;;;;11.20;4.38;;;12.10;99.90;;;;;;5070880;28;20028;-57
2021/10/14 07:12:12;;;;;;;10.27;3.90;;;12.00;99.90;;;;;;5071012;28;20403;-49
2021/10/14 07:14:39;;;;;;;7.63;3.63;;;12.10;99.90;;;;;;5071521;28;20052;-48
2021/10/14 07:17:04;;;;;;;11.27;4.00;;;12.10;99.90;;;;;;5070771;28;20503;-51
2021/10/14 07:19:30;;;;;;;8.77;4.38;;;12.10;99.90;;;;;;5070857;28;20048;-49
2021/10/14 07:21:56;;;;;;;8.05;3.90;;;12.10;99.90;;;;;;5070721;28;20035;-50
2021/10/14 07:24:21;;;;;;;9.55;4.63;;;12.10;99.90;;;;;;5071285;28;20372;-54
2021/10/14 07:26:47;;;;;;;8.82;4.75;;;12.10;99.90;;;;;;5070998;28;20056;-51
2021/10/14 07:29:13;;;;;;;9.32;4.32;;;12.10;99.90;;;;;;5070169;28;20025;-52
2021/10/14 07:31:40;;;;;;;11.55;4.63;;;12.10;99.90;;;;;;5070666;28;20081;-48
2021/10/14 07:34:05;;;;;;;8.50;4.25;;;12.10;99.90;;;;;;5070342;28;20020;-51
2021/10/14 07:36:31;;;;;;;6.97;3.92;;;12.10;99.90;;;;;;5070457;28;20035;-54
2021/10/14 07:38:58;;;;;;;7.38;3.63;;;12.10;99.90;;;;;;5070707;28;20047;-51
2021/10/14 07:41:24;;;;;;;6.18;2.85;;;12.10;99.90;;;;;;5070104;28;20029;-52
2021/10/14 07:43:49;;;;;;;3.55;2.35;;;12.10;99.90;;;;;;5070803;28;20085;-54
2021/10/14 07:46:15;;;;;;;10.00;4.18;;;12.00;99.90;;;;;;5070240;28;20115;-50
2021/10/14 07:48:41;;;;;;;5.05;3.38;;;12.00;99.90;;;;;;5070465;28;20028;-55
2021/10/14 07:51:09;;;;;;;6.07;3.40;;;12.10;99.90;;;;;;5069940;28;20040;-52
2021/10/14 07:53:35;;;;;;;5.75;3.90;;;12.00;99.90;;;;;;5070216;28;20067;-52
2021/10/14 07:56:01;;;;;;;6.60;3.53;;;12.00;99.90;;;;;;5066668;28;20021;-53
2021/10/14 07:58:26;;;;;;;4.78;3.00;;;12.10;99.90;;;;;;5069427;28;20025;-54
2021/10/14 08:00:52;;;;;;;5.97;3.80;;;12.10;99.90;;;;;;5069520;28;20031;-54
2021/10/14 08:03:17;;;;;;;7.20;3.10;;;12.10;99.90;;;;;;5070114;28;20123;-50
2021/10/14 08:05:43;;;;;;;6.78;3.60;;;12.20;99.90;;;;;;5070178;28;20033;-53
2021/10/14 08:08:09;;;;;;;6.18;3.38;;;12.20;99.90;;;;;;5069777;28;20460;-56
2021/10/14 08:10:35;;;;;;;5.53;3.53;;;12.20;99.90;;;;;;5068597;28;20027;-54
2021/10/14 08:13:01;;;;;;;4.97;2.95;;;12.20;99.90;;;;;;5070062;28;20025;-54
2021/10/14 08:15:26;;;;;;;4.95;3.63;;;12.20;99.90;;;;;;5069665;28;20112;-50
2021/10/14 08:17:52;;;;;;;9.23;3.78;;;12.20;99.90;;;;;;5070305;28;20032;-51
2021/10/14 08:20:18;;;;;;;7.68;3.67;;;12.20;99.90;;;;;;5069776;28;20016;-52
2021/10/14 08:22:44;;;;;;;6.72;3.97;;;12.30;99.90;;;;;;5069462;28;20020;-53
2021/10/14 08:25:12;;;;;;;10.82;4.75;;;12.30;99.90;;;;;;5068640;28;20120;-54
2021/10/14 08:27:39;;;;;;;15.45;4.22;;;12.30;99.90;;;;;;5068463;28;20512;-50
2021/10/14 08:30:06;;;;;;;5.80;4.15;;;12.30;99.90;;;;;;5069730;28;20451;-51
2021/10/14 08:32:33;;;;;;;10.20;4.30;;;12.30;99.90;;;;;;5069675;28;20435;-53
2021/10/14 08:34:59;;;;;;;8.07;4.38;;;12.30;99.90;;;;;;5067765;28;20823;-56
2021/10/14 08:37:24;;;;;;;8.32;4.70;;;12.30;99.90;;;;;;5069753;28;20022;-51
2021/10/14 08:39:51;;;;;;;6.65;4.40;;;12.40;99.90;;;;;;5072996;28;20058;-51
2021/10/14 08:42:19;;;;;;;6.97;4.72;;;12.40;99.90;;;;;;5090129;28;20043;-54
2021/10/14 08:44:44;;;;;;;8.98;4.45;;;12.50;99.90;;;;;;5089630;28;20028;-52
2021/10/14 08:47:14;;;;;;;8.15;4.13;;;12.60;99.90;;;;;;5089253;28;20077;-56
2021/10/14 08:49:45;;;;;;;6.30;4.05;;;12.70;99.90;;;;;;5089338;28;20050;-55
2021/10/14 08:52:11;;;;;;;6.93;3.90;;;12.70;99.90;;;;;;5089907;28;20035;-54
2021/10/14 08:54:37;;;;;;;9.93;4.00;;;12.70;99.90;;;;;;5089819;28;20020;-50
2021/10/14 08:57:03;;;;;;;7.70;3.85;;;12.70;99.90;;;;;;5074184;28;20021;-53
2021/10/14 08:59:28;;;;;;;7.18;3.65;;;12.70;99.90;;;;;;5068291;28;20399;-55
2021/10/14 09:02:14;;;;;;;6.10;4.00;;;12.70;99.90;;;;;;5068217;28;20024;-50
2021/10/14 09:04:50;;;;;;;7.47;3.65;;;12.70;99.90;;;;;;5068856;28;20051;-51
2021/10/14 09:07:16;;;;;;;;;;;12.70;99.90;;;;;;5068925;28;20067;-54
2021/10/14 09:09:43;;;;;;;11.15;4.47;;;12.70;99.90;;;;;;5068533;28;19950;-51
2021/10/14 09:12:11;;;;;;;11.07;4.55;;;12.70;99.90;;;;;;5068640;28;20036;-50
2021/10/14 09:15:02;;;;;;;10.40;5.00;;;12.60;99.90;;;;;;5068911;28;20044;-52
2021/10/14 09:17:36;;;;;;;7.93;4.65;;;12.60;99.90;;;;;;5069190;28;20017;-50
2021/10/14 09:20:28;;;;;;;6.85;4.22;;;12.60;99.90;;;;;;5068431;28;20028;-54
2021/10/14 09:23:16;;;;;;;6.53;4.40;;;12.60;99.90;;;;;;5067596;28;20020;-55
2021/10/14 09:25:48;;;;;;;6.95;4.28;;;12.60;99.90;;;;;;5061729;28;20518;-52
2021/10/14 09:28:17;;;;;;;8.93;4.88;;;12.60;99.90;;;;;;5068279;28;20431;-53
2021/10/14 09:30:45;;;;;;;7.82;5.05;;;12.60;99.90;;;;;;5068747;28;20028;-49
2021/10/14 09:33:34;;;;;;;7.35;4.45;;;12.60;99.90;;;;;;5068339;28;20032;-50
2021/10/14 09:36:24;;;;;;;6.97;4.78;;;12.60;99.90;;;;;;5068230;28;20399;-51
2021/10/14 09:38:54;;;;;;;9.55;4.45;;;12.60;99.90;;;;;;5068266;28;20025;-51
2021/10/14 09:41:22;;;;;;;11.60;5.05;;;12.70;99.90;;;;;;5067019;28;20492;-51
2021/10/14 09:43:52;;;;;;;7.82;5.28;;;12.70;99.90;;;;;;5067814;28;20496;-49
2021/10/14 09:46:48;;;;;;;8.45;4.60;;;12.80;99.90;;;;;;5065159;28;20377;-51
2021/10/14 09:49:26;;;;;;;6.40;4.15;;;12.90;99.90;;;;;;5054576;28;20585;-52
2021/10/14 09:51:51;;;;;;;7.80;4.15;;;12.90;99.90;;;;;;5048199;28;20029;-52
2021/10/14 09:54:17;;;;;;;8.68;4.35;;;12.90;99.90;;;;;;5055178;28;20086;-51
2021/10/14 09:56:43;;;;;;;6.03;4.20;;;12.90;99.90;;;;;;5067912;28;20028;-48
2021/10/14 09:59:09;;;;;;;4.63;3.08;;;12.90;99.90;;;;;;5067200;28;20029;-51
2021/10/14 10:01:40;;;;;;;3.67;3.35;;;12.90;99.90;;;;;;5067957;28;20040;-54
2021/10/14 10:04:06;;;;;;;6.43;3.75;;;12.90;99.90;;;;;;5064063;28;20029;-52
2021/10/14 10:06:34;;;;;;;4.20;3.33;;;12.80;99.90;;;;;;5065690;28;20041;-53
2021/10/14 10:09:15;;;;;;;3.88;3.35;;;12.80;99.90;;;;;;5066636;28;20021;-49
2021/10/14 10:11:44;;;;;;;3.80;3.22;;;12.80;99.90;;;;;;5068107;28;20024;-51
2021/10/14 10:14:10;;;;;;;5.97;3.25;;;12.90;99.90;;;;;;5066979;28;20449;-53
2021/10/14 10:16:36;;;;;;;5.80;3.95;;;12.90;99.90;;;;;;5067761;28;20035;-54
2021/10/14 10:19:04;;;;;;;4.90;3.28;;;12.90;99.90;;;;;;5050778;28;20389;-52
2021/10/14 10:21:33;;;;;;;5.45;3.30;;;13.00;99.90;;;;;;5055986;28;20024;-54
2021/10/14 10:24:03;;;;;;;6.40;3.45;;;13.10;99.90;;;;;;5067685;28;20025;-52
2021/10/14 10:26:37;;;;;;;3.85;3.00;;;13.10;99.90;;;;;;5067295;28;20039;-56
2021/10/14 10:29:14;;;;;;;3.47;2.50;;;13.10;99.90;;;;;;5051223;28;20081;-52
2021/10/14 10:31:46;;;;;;;5.82;2.25;;;13.10;99.90;;;;;;5067212;28;20021;-55
2021/10/14 10:34:48;;;;;;;5.22;2.63;;;13.20;99.90;;;;;;5054204;28;20041;-54
2021/10/14 10:37:25;;;;;;;1.65;1.55;;;13.10;99.90;;;;;;5047626;28;20518;-52
2021/10/14 10:39:55;;;;;;;2.90;2.33;;;13.10;99.90;;;;;;5069000;28;20056;-50
2021/10/14 10:42:42;;;;;;;2.95;1.98;;;13.10;99.90;;;;;;5087610;28;20406;-53
2021/10/14 10:45:24;;;;;;;2.10;2.00;;;13.10;99.90;;;;;;5065872;28;20585;-52
2021/10/14 10:47:56;;;;;;;2.47;2.28;;;13.20;99.90;;;;;;5067298;28;20028;-53
2021/10/14 10:50:28;;;;;;;2.38;2.17;;;13.20;99.90;;;;;;5065267;28;20025;-54
2021/10/14 10:53:28;;;;;;;3.65;2.20;;;13.30;99.90;;;;;;5048684;28;20017;-53
2021/10/14 10:55:57;;;;;;;3.88;2.38;;;13.30;99.90;;;;;;5031351;28;20059;-51
2021/10/14 10:58:31;;;;;;;2.97;2.67;;;13.30;99.90;;;;;;5047233;28;20029;-53
2021/10/14 11:00:58;;;;;;;4.25;2.30;;;13.30;99.90;;;;;;5047449;28;20493;-50
2021/10/14 11:03:26;;;;;;;2.67;2.42;;;13.30;99.90;;;;;;5046950;28;20100;-55
2021/10/14 11:06:00;;;;;;;2.20;2.00;;;13.20;99.90;;;;;;5046169;28;20028;-51
2021/10/14 11:08:31;;;;;;;2.00;1.80;;;13.20;99.90;;;;;;5047281;28;20508;-54
2021/10/14 11:11:08;;;;;;;4.75;2.63;;;13.30;99.90;;;;;;5047547;28;20476;-53
2021/10/14 11:13:35;;;;;;;2.53;2.33;;;13.40;99.90;;;;;;5047234;28;20029;-55
2021/10/14 11:16:03;;;;;;;2.88;2.60;;;13.50;99.90;;;;;;5047595;28;20032;-52
2021/10/14 11:18:30;;;;;;;3.10;2.35;;;13.60;99.90;;;;;;5047364;28;20059;-53
2021/10/14 11:20:58;;;;;;;3.20;2.53;;;13.60;99.90;;;;;;5047256;28;20029;-54
2021/10/14 11:23:30;;;;;;;2.80;2.45;;;13.70;99.90;;;;;;5047898;28;20047;-53
2021/10/14 11:26:16;;;;;;;2.53;2.10;;;13.70;99.90;;;;;;5047603;28;20036;-55
2021/10/14 11:29:05;;;;;;;4.40;1.98;;;13.70;99.90;;;;;;5046798;28;20067;-53
2021/10/14 11:31:40;;;;;;;3.13;1.67;;;13.70;99.90;;;;;;5047202;28;20065;-54
2021/10/14 11:34:26;;;;;;;3.72;2.25;;;13.60;99.90;;;;;;5046248;28;20182;-51
2021/10/14 11:36:59;;;;;;;2.97;2.67;;;13.60;99.90;;;;;;5047383;28;20020;-52
2021/10/14 11:39:32;;;;;;;5.10;2.13;;;13.60;99.90;;;;;;5046497;28;20025;-52
2021/10/14 11:42:03;;;;;;;5.55;2.10;;;13.50;99.90;;;;;;5046830;28;20033;-53
2021/10/14 11:44:32;;;;;;;3.42;2.35;;;13.50;99.90;;;;;;5047165;28;20017;-52
2021/10/14 11:46:59;;;;;;;4.95;2.15;;;13.60;99.90;;;;;;5065661;28;20028;-50
2021/10/14 11:49:25;;;;;;;3.35;2.05;;;13.50;99.90;;;;;;5050884;28;20366;-50
2021/10/14 11:51:52;;;;;;;4.65;2.95;;;13.60;99.90;;;;;;5051045;28;20025;-52
2021/10/14 11:54:19;;;;;;;8.10;2.80;;;13.60;99.90;;;;;;5050665;28;20025;-50
2021/10/14 11:56:51;;;;;;;2.75;2.28;;;13.70;99.90;;;;;;5049677;28;20052;-49
2021/10/14 11:59:19;;;;;;;4.38;3.08;;;13.70;99.90;;;;;;5065297;28;20035;-51
2021/10/14 12:02:10;;;;;;;3.53;2.33;;;13.70;99.90;;;;;;5070915;28;20028;-54
2021/10/14 12:04:42;;;;;;;3.88;2.47;;;13.70;99.90;;;;;;5070409;28;20028;-54
2021/10/14 12:07:09;;;;;;;7.18;2.40;;;13.70;99.90;;;;;;5090418;23;20022;-53
2021/10/14 12:09:40;;;;;;;2.80;2.17;;;13.70;99.90;;;;;;5068860;28;20028;-50
2021/10/14 12:12:06;;;;;;;4.72;3.10;;;13.80;99.90;;;;;;5069975;28;20107;-54
2021/10/14 12:14:31;;;;;;;3.83;2.83;;;13.90;99.90;;;;;;5085171;28;20107;-50
2021/10/14 12:17:10;;;;;;;5.15;3.30;;;13.80;99.90;;;;;;5070380;28;20095;-52
2021/10/14 12:19:47;;;;;;;4.28;3.05;;;13.80;99.90;;;;;;5069639;28;20039;-51
2021/10/14 12:22:20;;;;;;;4.43;2.85;;;13.80;99.90;;;;;;5069958;28;20044;-52
2021/10/14 12:25:00;;;;;;;3.97;2.97;;;13.80;99.90;;;;;;5070470;28;20020;-52
2021/10/14 12:27:44;;;;;;;3.70;3.28;;;13.70;99.90;;;;;;5070044;28;20040;-52
2021/10/14 12:30:26;;;;;;;6.75;3.38;;;13.60;99.90;;;;;;5069173;28;20078;-51
2021/10/14 12:32:55;;;;;;;6.45;2.92;;;13.60;99.90;;;;;;5069707;28;20472;-51
2021/10/14 12:35:26;;;;;;;6.15;3.20;;;13.50;99.90;;;;;;5069355;28;20046;-50
2021/10/14 12:38:12;;;;;;;3.78;3.42;;;13.40;99.90;;;;;;5069579;28;20028;-50
2021/10/14 12:40:46;;;;;;;6.63;3.47;;;13.40;99.90;;;;;;5078509;28;20024;-50
2021/10/14 12:43:23;;;;;;;5.53;3.58;;;13.30;99.90;;;;;;5049776;28;20512;-52
2021/10/14 12:54:02;;;;;;;6.30;3.13;;;13.20;99.90;;;;;;5069653;28;20082;-53
2021/10/14 12:57:01;;;;;;;4.47;3.75;;;13.20;99.90;;;;;;5069010;28;20104;-53
2021/10/14 12:59:28;;;;;;;6.13;4.45;;;13.20;99.90;;;;;;5069525;28;20107;-50